sensor_id;sensor_type;location;lat;lon;timestamp;temperature;humidity
12827;DHT22;66927;48.812;9.118;2024-02-26T00:01:55;10.20;96.40
12827;DHT22;66927;48.812;9.118;2024-02-26T00:04:21;10.20;96.70
12827;DHT22;66927;48.812;9.118;2024-02-26T00:06:47;10.10;96.90
12827;DHT22;66927;48.812;9.118;2024-02-26T00:09:13;10.10;97.10
12827;DHT22;66927;48.812;9.118;2024-02-26T00:11:39;10.10;97.20
12827;DHT22;66927;48.812;9.118;2024-02-26T00:14:04;10.10;96.90
12827;DHT22;66927;48.812;9.118;2024-02-26T00:16:30;10.10;96.60
12827;DHT22;66927;48.812;9.118;2024-02-26T00:18:56;10.10;96.50
12827;DHT22;66927;48.812;9.118;2024-02-26T00:21:21;10.10;96.40
12827;DHT22;66927;48.812;9.118;2024-02-26T00:23:48;10.00;96.40
12827;DHT22;66927;48.812;9.118;2024-02-26T00:26:14;9.90;96.50
12827;DHT22;66927;48.812;9.118;2024-02-26T00:28:40;10.00;96.50
12827;DHT22;66927;48.812;9.118;2024-02-26T00:31:06;9.90;96.40
12827;DHT22;66927;48.812;9.118;2024-02-26T00:33:31;10.00;96.50
12827;DHT22;66927;48.812;9.118;2024-02-26T00:35:57;10.00;96.50
12827;DHT22;66927;48.812;9.118;2024-02-26T00:38:23;10.00;96.60
12827;DHT22;66927;48.812;9.118;2024-02-26T00:40:48;10.00;96.60
12827;DHT22;66927;48.812;9.118;2024-02-26T00:43:14;10.00;96.60
12827;DHT22;66927;48.812;9.118;2024-02-26T00:45:40;10.00;96.60
12827;DHT22;66927;48.812;9.118;2024-02-26T00:48:06;10.00;96.60
12827;DHT22;66927;48.812;9.118;2024-02-26T00:50:33;10.00;96.50
12827;DHT22;66927;48.812;9.118;2024-02-26T00:52:59;10.00;96.50
12827;DHT22;66927;48.812;9.118;2024-02-26T00:55:25;10.00;96.60
12827;DHT22;66927;48.812;9.118;2024-02-26T00:57:50;10.00;96.50
12827;DHT22;66927;48.812;9.118;2024-02-26T01:00:16;10.00;96.50
12827;DHT22;66927;48.812;9.118;2024-02-26T01:02:42;10.00;96.50
12827;DHT22;66927;48.812;9.118;2024-02-26T01:05:08;10.00;96.40
12827;DHT22;66927;48.812;9.118;2024-02-26T01:07:37;10.00;96.40
12827;DHT22;66927;48.812;9.118;2024-02-26T01:10:05;10.00;96.50
12827;DHT22;66927;48.812;9.118;2024-02-26T01:12:34;9.90;96.70
12827;DHT22;66927;48.812;9.118;2024-02-26T01:15:01;9.90;96.90
12827;DHT22;66927;48.812;9.118;2024-02-26T01:17:28;9.90;97.00
12827;DHT22;66927;48.812;9.118;2024-02-26T01:19:54;9.90;97.10
12827;DHT22;66927;48.812;9.118;2024-02-26T01:22:19;9.90;97.20
12827;DHT22;66927;48.812;9.118;2024-02-26T01:24:45;9.90;97.50
12827;DHT22;66927;48.812;9.118;2024-02-26T01:27:11;9.90;97.70
12827;DHT22;66927;48.812;9.118;2024-02-26T01:29:37;9.90;97.90
12827;DHT22;66927;48.812;9.118;2024-02-26T01:32:03;9.90;97.90
12827;DHT22;66927;48.812;9.118;2024-02-26T01:34:31;9.90;97.90
12827;DHT22;66927;48.812;9.118;2024-02-26T01:36:56;9.90;97.90
12827;DHT22;66927;48.812;9.118;2024-02-26T01:39:22;9.90;97.80
12827;DHT22;66927;48.812;9.118;2024-02-26T01:41:48;9.80;97.80
12827;DHT22;66927;48.812;9.118;2024-02-26T01:44:13;9.80;97.90
12827;DHT22;66927;48.812;9.118;2024-02-26T01:46:39;9.80;97.70
12827;DHT22;66927;48.812;9.118;2024-02-26T01:49:06;9.80;97.70
12827;DHT22;66927;48.812;9.118;2024-02-26T01:51:32;9.80;97.80
12827;DHT22;66927;48.812;9.118;2024-02-26T01:54:00;9.70;97.80
12827;DHT22;66927;48.812;9.118;2024-02-26T01:56:27;9.70;97.90
12827;DHT22;66927;48.812;9.118;2024-02-26T01:58:56;9.70;98.10
12827;DHT22;66927;48.812;9.118;2024-02-26T02:01:30;9.70;98.30
12827;DHT22;66927;48.812;9.118;2024-02-26T02:03:58;9.80;98.30
12827;DHT22;66927;48.812;9.118;2024-02-26T02:06:24;9.80;98.10
12827;DHT22;66927;48.812;9.118;2024-02-26T02:08:50;9.70;98.30
12827;DHT22;66927;48.812;9.118;2024-02-26T02:11:17;9.70;98.50
12827;DHT22;66927;48.812;9.118;2024-02-26T02:13:42;9.70;98.60
12827;DHT22;66927;48.812;9.118;2024-02-26T02:16:08;9.70;98.70
12827;DHT22;66927;48.812;9.118;2024-02-26T02:18:34;9.70;98.80
12827;DHT22;66927;48.812;9.118;2024-02-26T02:21:00;9.70;99.00
12827;DHT22;66927;48.812;9.118;2024-02-26T02:23:26;9.70;99.10
12827;DHT22;66927;48.812;9.118;2024-02-26T02:25:53;9.50;99.30
12827;DHT22;66927;48.812;9.118;2024-02-26T02:28:20;9.60;99.10
12827;DHT22;66927;48.812;9.118;2024-02-26T02:30:46;9.60;98.90
12827;DHT22;66927;48.812;9.118;2024-02-26T02:33:12;9.60;98.80
12827;DHT22;66927;48.812;9.118;2024-02-26T02:35:40;9.60;98.90
12827;DHT22;66927;48.812;9.118;2024-02-26T02:38:06;9.60;99.00
12827;DHT22;66927;48.812;9.118;2024-02-26T02:40:32;9.60;99.30
12827;DHT22;66927;48.812;9.118;2024-02-26T02:42:57;9.60;99.50
12827;DHT22;66927;48.812;9.118;2024-02-26T02:45:24;9.60;99.70
12827;DHT22;66927;48.812;9.118;2024-02-26T02:47:49;9.60;99.90
12827;DHT22;66927;48.812;9.118;2024-02-26T02:50:15;9.60;99.90
12827;DHT22;66927;48.812;9.118;2024-02-26T02:52:43;9.60;99.90
12827;DHT22;66927;48.812;9.118;2024-02-26T02:55:09;9.70;99.90
12827;DHT22;66927;48.812;9.118;2024-02-26T02:57:35;9.60;99.90
12827;DHT22;66927;48.812;9.118;2024-02-26T03:00:07;9.50;99.90
12827;DHT22;66927;48.812;9.118;2024-02-26T03:02:33;9.50;99.90
12827;DHT22;66927;48.812;9.118;2024-02-26T03:05:05;9.50;99.90
12827;DHT22;66927;48.812;9.118;2024-02-26T03:07:31;9.50;99.90
12827;DHT22;66927;48.812;9.118;2024-02-26T03:09:57;9.50;99.90
12827;DHT22;66927;48.812;9.118;2024-02-26T03:12:22;9.60;99.90
12827;DHT22;66927;48.812;9.118;2024-02-26T03:14:48;9.60;99.90
12827;DHT22;66927;48.812;9.118;2024-02-26T03:17:14;9.60;99.90
12827;DHT22;66927;48.812;9.118;2024-02-26T03:19:39;9.60;99.90
12827;DHT22;66927;48.812;9.118;2024-02-26T03:22:05;9.60;99.90
12827;DHT22;66927;48.812;9.118;2024-02-26T03:24:31;9.60;99.90
12827;DHT22;66927;48.812;9.118;2024-02-26T03:26:58;9.60;99.90
12827;DHT22;66927;48.812;9.118;2024-02-26T03:29:24;9.70;99.90
12827;DHT22;66927;48.812;9.118;2024-02-26T03:31:49;9.60;99.90
12827;DHT22;66927;48.812;9.118;2024-02-26T03:34:15;9.60;99.90
12827;DHT22;66927;48.812;9.118;2024-02-26T03:36:41;9.60;99.90
12827;DHT22;66927;48.812;9.118;2024-02-26T03:39:07;9.60;99.90
12827;DHT22;66927;48.812;9.118;2024-02-26T03:41:34;9.70;99.90
12827;DHT22;66927;48.812;9.118;2024-02-26T03:44:00;9.70;99.90
12827;DHT22;66927;48.812;9.118;2024-02-26T03:46:26;9.70;99.90
12827;DHT22;66927;48.812;9.118;2024-02-26T03:48:52;9.70;99.90
12827;DHT22;66927;48.812;9.118;2024-02-26T03:51:17;9.70;99.90
12827;DHT22;66927;48.812;9.118;2024-02-26T03:53:43;9.70;99.90
12827;DHT22;66927;48.812;9.118;2024-02-26T03:56:09;9.70;99.90
12827;DHT22;66927;48.812;9.118;2024-02-26T03:58:36;9.70;99.90
12827;DHT22;66927;48.812;9.118;2024-02-26T04:01:02;9.70;99.90
12827;DHT22;66927;48.812;9.118;2024-02-26T04:03:27;9.70;99.90
12827;DHT22;66927;48.812;9.118;2024-02-26T04:05:53;9.70;99.90
12827;DHT22;66927;48.812;9.118;2024-02-26T04:08:19;9.70;99.90
12827;DHT22;66927;48.812;9.118;2024-02-26T04:10:44;9.70;99.90
12827;DHT22;66927;48.812;9.118;2024-02-26T04:13:11;9.70;99.90
12827;DHT22;66927;48.812;9.118;2024-02-26T04:15:37;9.70;99.90
12827;DHT22;66927;48.812;9.118;2024-02-26T04:18:03;9.60;99.90
12827;DHT22;66927;48.812;9.118;2024-02-26T04:20:28;9.60;99.90
12827;DHT22;66927;48.812;9.118;2024-02-26T04:22:54;9.60;99.90
12827;DHT22;66927;48.812;9.118;2024-02-26T04:25:21;9.60;99.90
12827;DHT22;66927;48.812;9.118;2024-02-26T04:27:46;9.50;99.90
12827;DHT22;66927;48.812;9.118;2024-02-26T04:30:12;9.50;99.90
12827;DHT22;66927;48.812;9.118;2024-02-26T04:32:38;9.40;99.90
12827;DHT22;66927;48.812;9.118;2024-02-26T04:35:04;9.40;99.90
12827;DHT22;66927;48.812;9.118;2024-02-26T04:37:30;9.40;99.90
12827;DHT22;66927;48.812;9.118;2024-02-26T04:40:00;9.20;99.90
12827;DHT22;66927;48.812;9.118;2024-02-26T04:42:27;9.20;99.90
12827;DHT22;66927;48.812;9.118;2024-02-26T04:44:54;9.10;99.90
12827;DHT22;66927;48.812;9.118;2024-02-26T04:47:19;9.10;99.90
12827;DHT22;66927;48.812;9.118;2024-02-26T04:49:50;9.10;99.90
12827;DHT22;66927;48.812;9.118;2024-02-26T04:52:16;9.20;99.90
12827;DHT22;66927;48.812;9.118;2024-02-26T04:54:41;9.20;99.90
12827;DHT22;66927;48.812;9.118;2024-02-26T04:57:07;9.30;99.90
12827;DHT22;66927;48.812;9.118;2024-02-26T04:59:33;9.30;99.90
12827;DHT22;66927;48.812;9.118;2024-02-26T05:01:58;9.30;99.90
12827;DHT22;66927;48.812;9.118;2024-02-26T05:04:25;9.30;99.90
12827;DHT22;66927;48.812;9.118;2024-02-26T05:06:51;9.30;99.90
12827;DHT22;66927;48.812;9.118;2024-02-26T05:09:16;9.30;99.90
12827;DHT22;66927;48.812;9.118;2024-02-26T05:11:42;9.30;99.90
12827;DHT22;66927;48.812;9.118;2024-02-26T05:14:08;9.30;99.90
12827;DHT22;66927;48.812;9.118;2024-02-26T05:16:33;9.30;99.90
12827;DHT22;66927;48.812;9.118;2024-02-26T05:18:59;9.30;99.90
12827;DHT22;66927;48.812;9.118;2024-02-26T05:21:28;9.40;99.90
12827;DHT22;66927;48.812;9.118;2024-02-26T05:23:53;9.40;99.90
12827;DHT22;66927;48.812;9.118;2024-02-26T05:26:22;9.40;99.90
12827;DHT22;66927;48.812;9.118;2024-02-26T05:28:49;9.40;99.90
12827;DHT22;66927;48.812;9.118;2024-02-26T05:31:15;9.40;99.90
12827;DHT22;66927;48.812;9.118;2024-02-26T05:33:41;9.40;99.90
12827;DHT22;66927;48.812;9.118;2024-02-26T05:36:07;9.40;99.90
12827;DHT22;66927;48.812;9.118;2024-02-26T05:38:33;9.30;99.90
12827;DHT22;66927;48.812;9.118;2024-02-26T05:40:59;9.40;99.90
12827;DHT22;66927;48.812;9.118;2024-02-26T05:43:28;9.40;99.90
12827;DHT22;66927;48.812;9.118;2024-02-26T05:45:53;9.30;99.90
12827;DHT22;66927;48.812;9.118;2024-02-26T05:48:19;9.30;99.90
12827;DHT22;66927;48.812;9.118;2024-02-26T05:50:46;9.30;99.90
12827;DHT22;66927;48.812;9.118;2024-02-26T05:53:12;9.30;99.90
12827;DHT22;66927;48.812;9.118;2024-02-26T05:55:38;9.30;99.90
12827;DHT22;66927;48.812;9.118;2024-02-26T05:58:04;9.30;99.90
12827;DHT22;66927;48.812;9.118;2024-02-26T06:00:30;9.30;99.90
12827;DHT22;66927;48.812;9.118;2024-02-26T06:02:55;9.20;99.90
12827;DHT22;66927;48.812;9.118;2024-02-26T06:05:21;9.20;99.90
12827;DHT22;66927;48.812;9.118;2024-02-26T06:07:47;9.20;99.90
12827;DHT22;66927;48.812;9.118;2024-02-26T06:10:12;9.20;99.90
12827;DHT22;66927;48.812;9.118;2024-02-26T06:12:39;9.20;99.90
12827;DHT22;66927;48.812;9.118;2024-02-26T06:15:06;9.20;99.90
12827;DHT22;66927;48.812;9.118;2024-02-26T06:17:31;9.20;99.90
12827;DHT22;66927;48.812;9.118;2024-02-26T06:19:57;9.20;99.90
12827;DHT22;66927;48.812;9.118;2024-02-26T06:22:41;9.20;99.90
12827;DHT22;66927;48.812;9.118;2024-02-26T06:25:07;9.20;99.90
12827;DHT22;66927;48.812;9.118;2024-02-26T06:27:35;9.20;99.90
12827;DHT22;66927;48.812;9.118;2024-02-26T06:30:01;9.20;99.90
12827;DHT22;66927;48.812;9.118;2024-02-26T06:32:27;9.20;99.90
12827;DHT22;66927;48.812;9.118;2024-02-26T06:34:55;9.30;99.90
12827;DHT22;66927;48.812;9.118;2024-02-26T06:37:21;9.20;99.90
12827;DHT22;66927;48.812;9.118;2024-02-26T06:39:47;9.20;99.90
12827;DHT22;66927;48.812;9.118;2024-02-26T06:42:13;9.20;99.90
12827;DHT22;66927;48.812;9.118;2024-02-26T06:44:39;9.20;99.90
12827;DHT22;66927;48.812;9.118;2024-02-26T06:47:05;9.20;99.90
12827;DHT22;66927;48.812;9.118;2024-02-26T06:49:31;9.20;99.90
12827;DHT22;66927;48.812;9.118;2024-02-26T06:51:56;9.20;99.90
12827;DHT22;66927;48.812;9.118;2024-02-26T06:54:22;9.20;99.90
12827;DHT22;66927;48.812;9.118;2024-02-26T06:56:48;9.20;99.90
12827;DHT22;66927;48.812;9.118;2024-02-26T06:59:14;9.10;99.90
12827;DHT22;66927;48.812;9.118;2024-02-26T07:01:43;9.20;99.90
12827;DHT22;66927;48.812;9.118;2024-02-26T07:04:08;9.20;99.90
12827;DHT22;66927;48.812;9.118;2024-02-26T07:06:36;9.10;99.90
12827;DHT22;66927;48.812;9.118;2024-02-26T07:09:02;9.10;99.90
12827;DHT22;66927;48.812;9.118;2024-02-26T07:11:27;9.10;99.90
12827;DHT22;66927;48.812;9.118;2024-02-26T07:13:53;9.10;99.90
12827;DHT22;66927;48.812;9.118;2024-02-26T07:16:19;9.10;99.90
12827;DHT22;66927;48.812;9.118;2024-02-26T07:18:46;9.10;99.90
12827;DHT22;66927;48.812;9.118;2024-02-26T07:21:12;9.10;99.90
12827;DHT22;66927;48.812;9.118;2024-02-26T07:23:38;9.10;99.90
12827;DHT22;66927;48.812;9.118;2024-02-26T07:26:03;9.10;99.90
12827;DHT22;66927;48.812;9.118;2024-02-26T07:28:29;9.10;99.90
12827;DHT22;66927;48.812;9.118;2024-02-26T07:30:55;9.20;99.90
12827;DHT22;66927;48.812;9.118;2024-02-26T07:33:20;9.20;99.90
12827;DHT22;66927;48.812;9.118;2024-02-26T07:35:46;9.20;99.90
12827;DHT22;66927;48.812;9.118;2024-02-26T07:38:11;9.20;99.90
12827;DHT22;66927;48.812;9.118;2024-02-26T07:40:39;9.30;99.90
12827;DHT22;66927;48.812;9.118;2024-02-26T07:43:04;9.20;99.90
12827;DHT22;66927;48.812;9.118;2024-02-26T07:45:30;9.30;99.90
12827;DHT22;66927;48.812;9.118;2024-02-26T07:47:55;9.30;99.90
12827;DHT22;66927;48.812;9.118;2024-02-26T07:50:21;9.20;99.90
12827;DHT22;66927;48.812;9.118;2024-02-26T07:52:48;9.20;99.90
12827;DHT22;66927;48.812;9.118;2024-02-26T07:55:16;9.10;99.90
12827;DHT22;66927;48.812;9.118;2024-02-26T07:57:42;9.10;99.90
12827;DHT22;66927;48.812;9.118;2024-02-26T08:00:09;9.20;99.90
12827;DHT22;66927;48.812;9.118;2024-02-26T08:02:38;9.20;99.90
12827;DHT22;66927;48.812;9.118;2024-02-26T08:05:05;9.30;99.90
12827;DHT22;66927;48.812;9.118;2024-02-26T08:07:31;9.30;99.90
12827;DHT22;66927;48.812;9.118;2024-02-26T08:09:57;9.30;99.90
12827;DHT22;66927;48.812;9.118;2024-02-26T08:12:22;9.40;99.90
12827;DHT22;66927;48.812;9.118;2024-02-26T08:14:48;9.40;99.90
12827;DHT22;66927;48.812;9.118;2024-02-26T08:17:14;9.40;99.90
12827;DHT22;66927;48.812;9.118;2024-02-26T08:19:39;9.40;99.90
12827;DHT22;66927;48.812;9.118;2024-02-26T08:22:05;9.40;99.90
12827;DHT22;66927;48.812;9.118;2024-02-26T08:24:31;9.50;99.90
12827;DHT22;66927;48.812;9.118;2024-02-26T08:26:56;9.50;99.90
12827;DHT22;66927;48.812;9.118;2024-02-26T08:29:22;9.50;99.90
12827;DHT22;66927;48.812;9.118;2024-02-26T08:31:48;9.50;99.90
12827;DHT22;66927;48.812;9.118;2024-02-26T08:34:14;9.60;99.90
12827;DHT22;66927;48.812;9.118;2024-02-26T08:36:40;9.60;99.90
12827;DHT22;66927;48.812;9.118;2024-02-26T08:39:05;9.50;99.90
12827;DHT22;66927;48.812;9.118;2024-02-26T08:41:31;9.50;99.90
12827;DHT22;66927;48.812;9.118;2024-02-26T08:43:56;9.60;99.90
12827;DHT22;66927;48.812;9.118;2024-02-26T08:46:23;9.60;99.90
12827;DHT22;66927;48.812;9.118;2024-02-26T08:48:49;9.60;99.90
12827;DHT22;66927;48.812;9.118;2024-02-26T08:51:15;9.60;99.90
12827;DHT22;66927;48.812;9.118;2024-02-26T08:53:40;9.50;99.90
12827;DHT22;66927;48.812;9.118;2024-02-26T08:56:06;9.60;99.90
12827;DHT22;66927;48.812;9.118;2024-02-26T08:58:32;9.60;99.90
12827;DHT22;66927;48.812;9.118;2024-02-26T09:00:57;9.60;99.90
12827;DHT22;66927;48.812;9.118;2024-02-26T09:03:23;9.70;99.90
12827;DHT22;66927;48.812;9.118;2024-02-26T09:05:49;9.70;99.90
12827;DHT22;66927;48.812;9.118;2024-02-26T09:08:15;9.70;99.90
12827;DHT22;66927;48.812;9.118;2024-02-26T09:10:42;9.70;99.90
12827;DHT22;66927;48.812;9.118;2024-02-26T09:13:07;9.70;99.90
12827;DHT22;66927;48.812;9.118;2024-02-26T09:15:33;9.70;99.90
12827;DHT22;66927;48.812;9.118;2024-02-26T09:17:59;9.70;99.90
12827;DHT22;66927;48.812;9.118;2024-02-26T09:20:25;9.80;99.90
12827;DHT22;66927;48.812;9.118;2024-02-26T09:22:50;9.80;99.90
12827;DHT22;66927;48.812;9.118;2024-02-26T09:25:19;9.80;99.90
12827;DHT22;66927;48.812;9.118;2024-02-26T09:27:45;9.80;99.90
12827;DHT22;66927;48.812;9.118;2024-02-26T09:30:12;9.80;99.90
12827;DHT22;66927;48.812;9.118;2024-02-26T09:32:38;9.90;99.90
12827;DHT22;66927;48.812;9.118;2024-02-26T09:35:05;9.80;99.90
12827;DHT22;66927;48.812;9.118;2024-02-26T09:37:31;9.80;99.90
12827;DHT22;66927;48.812;9.118;2024-02-26T09:39:56;9.80;99.90
12827;DHT22;66927;48.812;9.118;2024-02-26T09:42:25;9.90;99.90
12827;DHT22;66927;48.812;9.118;2024-02-26T09:44:54;9.90;99.90
12827;DHT22;66927;48.812;9.118;2024-02-26T09:47:27;9.90;99.90
12827;DHT22;66927;48.812;9.118;2024-02-26T09:49:55;9.90;99.90
12827;DHT22;66927;48.812;9.118;2024-02-26T09:52:21;9.90;99.90
12827;DHT22;66927;48.812;9.118;2024-02-26T09:54:48;10.00;99.90
12827;DHT22;66927;48.812;9.118;2024-02-26T09:57:16;10.00;99.90
12827;DHT22;66927;48.812;9.118;2024-02-26T09:59:43;10.10;99.90
12827;DHT22;66927;48.812;9.118;2024-02-26T10:02:14;10.10;99.90
12827;DHT22;66927;48.812;9.118;2024-02-26T10:04:41;10.10;99.90
12827;DHT22;66927;48.812;9.118;2024-02-26T10:07:12;10.10;99.90
12827;DHT22;66927;48.812;9.118;2024-02-26T10:09:39;10.20;99.90
12827;DHT22;66927;48.812;9.118;2024-02-26T10:12:05;10.30;99.90
12827;DHT22;66927;48.812;9.118;2024-02-26T10:14:32;10.30;99.90
12827;DHT22;66927;48.812;9.118;2024-02-26T10:16:59;10.40;99.90
12827;DHT22;66927;48.812;9.118;2024-02-26T10:19:30;10.50;99.90
12827;DHT22;66927;48.812;9.118;2024-02-26T10:22:00;10.60;99.90
12827;DHT22;66927;48.812;9.118;2024-02-26T10:24:27;10.70;99.90
12827;DHT22;66927;48.812;9.118;2024-02-26T10:26:54;10.60;99.90
12827;DHT22;66927;48.812;9.118;2024-02-26T10:29:21;10.70;99.90
12827;DHT22;66927;48.812;9.118;2024-02-26T10:31:46;10.70;99.90
12827;DHT22;66927;48.812;9.118;2024-02-26T10:34:12;10.70;99.90
12827;DHT22;66927;48.812;9.118;2024-02-26T10:36:40;10.80;99.90
12827;DHT22;66927;48.812;9.118;2024-02-26T10:39:06;10.80;99.90
12827;DHT22;66927;48.812;9.118;2024-02-26T10:41:35;10.90;99.90
12827;DHT22;66927;48.812;9.118;2024-02-26T10:44:01;11.00;99.90
12827;DHT22;66927;48.812;9.118;2024-02-26T10:46:27;11.00;99.90
12827;DHT22;66927;48.812;9.118;2024-02-26T10:48:53;11.10;99.90
12827;DHT22;66927;48.812;9.118;2024-02-26T10:51:27;11.20;99.90
12827;DHT22;66927;48.812;9.118;2024-02-26T10:53:58;11.20;99.90
12827;DHT22;66927;48.812;9.118;2024-02-26T10:56:27;11.20;99.90
12827;DHT22;66927;48.812;9.118;2024-02-26T10:58:53;11.30;99.90
12827;DHT22;66927;48.812;9.118;2024-02-26T11:01:20;11.30;99.90
12827;DHT22;66927;48.812;9.118;2024-02-26T11:03:48;11.40;99.90
12827;DHT22;66927;48.812;9.118;2024-02-26T11:06:15;11.40;99.90
12827;DHT22;66927;48.812;9.118;2024-02-26T11:08:42;11.50;99.90
12827;DHT22;66927;48.812;9.118;2024-02-26T11:11:08;11.60;99.90
12827;DHT22;66927;48.812;9.118;2024-02-26T11:13:35;11.70;99.90
12827;DHT22;66927;48.812;9.118;2024-02-26T11:16:04;11.90;99.90
12827;DHT22;66927;48.812;9.118;2024-02-26T11:18:31;12.00;99.90
12827;DHT22;66927;48.812;9.118;2024-02-26T11:20:59;12.20;99.90
12827;DHT22;66927;48.812;9.118;2024-02-26T11:23:24;12.40;99.90
12827;DHT22;66927;48.812;9.118;2024-02-26T11:25:52;12.50;99.90
12827;DHT22;66927;48.812;9.118;2024-02-26T11:28:20;12.60;99.90
12827;DHT22;66927;48.812;9.118;2024-02-26T11:30:48;12.80;99.90
12827;DHT22;66927;48.812;9.118;2024-02-26T11:33:15;12.80;99.30
12827;DHT22;66927;48.812;9.118;2024-02-26T11:35:41;12.90;98.20
12827;DHT22;66927;48.812;9.118;2024-02-26T11:38:07;12.80;98.40
12827;DHT22;66927;48.812;9.118;2024-02-26T11:40:38;12.80;98.40
12827;DHT22;66927;48.812;9.118;2024-02-26T11:43:07;12.80;99.00
12827;DHT22;66927;48.812;9.118;2024-02-26T11:48:15;12.90;99.30
12827;DHT22;66927;48.812;9.118;2024-02-26T11:50:47;13.10;99.30
12827;DHT22;66927;48.812;9.118;2024-02-26T11:53:30;13.20;98.70
12827;DHT22;66927;48.812;9.118;2024-02-26T11:56:19;13.60;98.10
12827;DHT22;66927;48.812;9.118;2024-02-26T11:58:46;13.80;97.90
12827;DHT22;66927;48.812;9.118;2024-02-26T12:06:55;14.00;97.70
12827;DHT22;66927;48.812;9.118;2024-02-26T12:09:39;14.00;97.20
12827;DHT22;66927;48.812;9.118;2024-02-26T12:12:13;14.00;97.20
12827;DHT22;66927;48.812;9.118;2024-02-26T12:14:58;13.90;97.20
12827;DHT22;66927;48.812;9.118;2024-02-26T12:17:24;13.80;97.20
12827;DHT22;66927;48.812;9.118;2024-02-26T12:19:51;13.70;97.30
12827;DHT22;66927;48.812;9.118;2024-02-26T12:22:18;13.60;97.60
12827;DHT22;66927;48.812;9.118;2024-02-26T12:24:44;13.40;97.50
12827;DHT22;66927;48.812;9.118;2024-02-26T12:27:10;13.30;98.00
12827;DHT22;66927;48.812;9.118;2024-02-26T12:29:36;13.30;98.30
12827;DHT22;66927;48.812;9.118;2024-02-26T12:32:03;13.10;98.40
12827;DHT22;66927;48.812;9.118;2024-02-26T12:34:30;13.10;98.50
12827;DHT22;66927;48.812;9.118;2024-02-26T12:36:56;13.00;98.50
12827;DHT22;66927;48.812;9.118;2024-02-26T12:39:22;12.80;98.30
12827;DHT22;66927;48.812;9.118;2024-02-26T12:41:48;12.80;98.70
12827;DHT22;66927;48.812;9.118;2024-02-26T12:44:28;12.80;98.50
12827;DHT22;66927;48.812;9.118;2024-02-26T12:47:05;12.70;98.90
12827;DHT22;66927;48.812;9.118;2024-02-26T12:49:31;12.70;98.80
12827;DHT22;66927;48.812;9.118;2024-02-26T12:51:57;12.60;98.90
12827;DHT22;66927;48.812;9.118;2024-02-26T12:54:30;12.70;99.20
12827;DHT22;66927;48.812;9.118;2024-02-26T12:56:58;12.70;99.40
12827;DHT22;66927;48.812;9.118;2024-02-26T12:59:25;12.70;99.40
12827;DHT22;66927;48.812;9.118;2024-02-26T13:01:51;12.60;99.40
12827;DHT22;66927;48.812;9.118;2024-02-26T13:04:16;12.70;98.80
12827;DHT22;66927;48.812;9.118;2024-02-26T13:06:43;12.70;98.50
12827;DHT22;66927;48.812;9.118;2024-02-26T13:09:12;12.80;98.90
12827;DHT22;66927;48.812;9.118;2024-02-26T13:11:40;12.70;98.60
12827;DHT22;66927;48.812;9.118;2024-02-26T13:14:05;12.80;98.80
12827;DHT22;66927;48.812;9.118;2024-02-26T13:16:32;12.90;98.80
12827;DHT22;66927;48.812;9.118;2024-02-26T13:19:11;12.90;98.80
12827;DHT22;66927;48.812;9.118;2024-02-26T13:21:36;13.10;98.90
12827;DHT22;66927;48.812;9.118;2024-02-26T13:24:02;13.20;98.80
12827;DHT22;66927;48.812;9.118;2024-02-26T13:26:28;13.30;98.80
12827;DHT22;66927;48.812;9.118;2024-02-26T13:29:01;13.50;98.40
12827;DHT22;66927;48.812;9.118;2024-02-26T13:31:28;13.60;98.50
12827;DHT22;66927;48.812;9.118;2024-02-26T13:33:54;13.70;98.00
12827;DHT22;66927;48.812;9.118;2024-02-26T13:36:22;13.80;97.90
12827;DHT22;66927;48.812;9.118;2024-02-26T13:38:52;13.80;97.50
12827;DHT22;66927;48.812;9.118;2024-02-26T13:41:21;13.90;97.40
12827;DHT22;66927;48.812;9.118;2024-02-26T13:43:47;13.90;97.70
12827;DHT22;66927;48.812;9.118;2024-02-26T13:46:14;14.00;97.80
12827;DHT22;66927;48.812;9.118;2024-02-26T13:48:41;14.00;97.60
12827;DHT22;66927;48.812;9.118;2024-02-26T13:51:07;14.00;97.60
12827;DHT22;66927;48.812;9.118;2024-02-26T13:53:32;14.00;97.80
12827;DHT22;66927;48.812;9.118;2024-02-26T13:55:58;14.10;97.50
12827;DHT22;66927;48.812;9.118;2024-02-26T13:58:26;13.80;96.90
12827;DHT22;66927;48.812;9.118;2024-02-26T14:00:55;14.00;97.30
12827;DHT22;66927;48.812;9.118;2024-02-26T14:03:22;14.00;97.60
12827;DHT22;66927;48.812;9.118;2024-02-26T14:05:47;14.00;97.80
12827;DHT22;66927;48.812;9.118;2024-02-26T14:08:13;14.00;98.10
12827;DHT22;66927;48.812;9.118;2024-02-26T14:10:40;14.10;98.10
12827;DHT22;66927;48.812;9.118;2024-02-26T14:13:05;14.20;98.20
12827;DHT22;66927;48.812;9.118;2024-02-26T14:15:31;14.30;98.00
12827;DHT22;66927;48.812;9.118;2024-02-26T14:17:58;14.30;98.20
12827;DHT22;66927;48.812;9.118;2024-02-26T14:20:24;14.40;98.10
12827;DHT22;66927;48.812;9.118;2024-02-26T14:22:51;14.40;98.20
12827;DHT22;66927;48.812;9.118;2024-02-26T14:25:19;14.50;97.90
12827;DHT22;66927;48.812;9.118;2024-02-26T14:27:46;14.70;98.00
12827;DHT22;66927;48.812;9.118;2024-02-26T14:30:12;14.80;97.90
12827;DHT22;66927;48.812;9.118;2024-02-26T14:32:38;14.80;97.10
12827;DHT22;66927;48.812;9.118;2024-02-26T14:35:06;14.90;97.40
12827;DHT22;66927;48.812;9.118;2024-02-26T14:37:35;15.10;97.50
12827;DHT22;66927;48.812;9.118;2024-02-26T14:40:02;15.30;96.80
12827;DHT22;66927;48.812;9.118;2024-02-26T14:42:31;15.50;96.40
12827;DHT22;66927;48.812;9.118;2024-02-26T14:44:57;15.60;96.20
12827;DHT22;66927;48.812;9.118;2024-02-26T14:47:23;15.70;96.00
12827;DHT22;66927;48.812;9.118;2024-02-26T14:49:51;15.70;96.00
12827;DHT22;66927;48.812;9.118;2024-02-26T14:52:17;15.60;95.60
12827;DHT22;66927;48.812;9.118;2024-02-26T14:54:43;15.50;95.50
12827;DHT22;66927;48.812;9.118;2024-02-26T14:57:08;15.30;95.60
12827;DHT22;66927;48.812;9.118;2024-02-26T14:59:34;15.20;96.00
12827;DHT22;66927;48.812;9.118;2024-02-26T15:02:02;15.10;96.20
12827;DHT22;66927;48.812;9.118;2024-02-26T15:04:28;15.00;96.20
12827;DHT22;66927;48.812;9.118;2024-02-26T15:06:53;14.80;96.30
12827;DHT22;66927;48.812;9.118;2024-02-26T15:09:19;14.70;96.50
12827;DHT22;66927;48.812;9.118;2024-02-26T15:11:45;14.60;96.50
12827;DHT22;66927;48.812;9.118;2024-02-26T15:14:10;14.50;96.40
12827;DHT22;66927;48.812;9.118;2024-02-26T15:16:36;14.40;96.60
12827;DHT22;66927;48.812;9.118;2024-02-26T15:19:02;14.30;96.90
12827;DHT22;66927;48.812;9.118;2024-02-26T15:21:32;14.10;96.90
12827;DHT22;66927;48.812;9.118;2024-02-26T15:24:01;14.10;97.30
12827;DHT22;66927;48.812;9.118;2024-02-26T15:26:28;14.00;97.20
12827;DHT22;66927;48.812;9.118;2024-02-26T15:28:53;13.90;97.40
12827;DHT22;66927;48.812;9.118;2024-02-26T15:31:19;13.90;97.60
12827;DHT22;66927;48.812;9.118;2024-02-26T15:33:45;13.80;97.90
12827;DHT22;66927;48.812;9.118;2024-02-26T15:36:11;13.80;98.00
12827;DHT22;66927;48.812;9.118;2024-02-26T15:38:37;13.70;97.90
12827;DHT22;66927;48.812;9.118;2024-02-26T15:41:11;13.70;98.10
12827;DHT22;66927;48.812;9.118;2024-02-26T15:43:37;13.60;98.10
12827;DHT22;66927;48.812;9.118;2024-02-26T15:46:02;13.60;98.10